createdAt,value
2019-01-05T00:00:39.039Z,34.73
2019-01-05T00:02:15.303Z,40.43
2019-01-05T00:03:52.406Z,42.75
2019-01-05T00:05:15.698Z,43.55
2019-01-05T00:06:42.953Z,54.60
2019-01-05T00:08:21.518Z,57.83
2019-01-05T00:09:46.651Z,37.73
2019-01-05T00:11:11.397Z,32.85
2019-01-05T00:12:53.238Z,37.23
2019-01-05T00:14:21.341Z,18.92
2019-01-05T00:15:44.397Z,21.12
2019-01-05T00:17:07.958Z,20.65
2019-01-05T00:18:39.305Z,19.73
2019-01-05T00:20:22.326Z,27.10
2019-01-05T00:21:57.641Z,18.90
2019-01-05T00:23:38.274Z,24.20
2019-01-05T00:25:08.927Z,17.80
2019-01-05T00:26:49.018Z,20.85
2019-01-05T00:28:18.262Z,23.30
2019-01-05T00:29:50.248Z,18.67
2019-01-05T00:31:14.751Z,24.37
2019-01-05T00:32:44.157Z,18.70
2019-01-05T00:34:13.733Z,25.62
2019-01-05T00:36:06.306Z,25.92
2019-01-05T00:37:43.328Z,25.48
2019-01-05T00:39:08.596Z,28.55
2019-01-05T00:40:31.686Z,21.90
2019-01-05T00:42:03.698Z,23.35
2019-01-05T00:43:38.897Z,26.20
2019-01-05T00:45:04.545Z,21.27
2019-01-05T00:46:38.403Z,24.92
2019-01-05T00:48:16.288Z,30.35
2019-01-05T00:49:36.802Z,22.22
2019-01-05T00:51:01.959Z,24.40
2019-01-05T00:52:26.702Z,25.25
2019-01-05T00:53:50.486Z,29.42
2019-01-05T00:55:14.938Z,27.90
2019-01-05T00:56:40.705Z,29.45
2019-01-05T00:58:19.145Z,18.05
2019-01-05T00:59:44.001Z,27.90
2019-01-05T01:01:08.702Z,22.50
2019-01-05T01:02:34.129Z,20.00
2019-01-05T01:03:57.451Z,21.00
2019-01-05T01:05:25.113Z,20.82
2019-01-05T01:06:59.585Z,27.32
2019-01-05T01:08:24.518Z,28.38
2019-01-05T01:09:46.746Z,23.05
2019-01-05T01:11:05.269Z,32.30
2019-01-05T01:12:32.786Z,27.02
2019-01-05T01:14:00.513Z,35.03
2019-01-05T01:15:24.036Z,37.35
2019-01-05T01:16:51.659Z,28.25
2019-01-05T01:18:15.010Z,27.22
2019-01-05T01:19:54.102Z,30.12
2019-01-05T01:21:28.462Z,43.78
2019-01-05T01:22:51.909Z,41.18
2019-01-05T01:24:14.293Z,39.42
2019-01-05T01:25:39.270Z,24.95
2019-01-05T01:27:02.854Z,33.63
2019-01-05T01:28:50.453Z,41.40
2019-01-05T01:30:13.571Z,35.20
2019-01-05T01:31:38.430Z,37.50
2019-01-05T01:33:04.509Z,39.30
2019-01-05T01:34:22.122Z,32.80
2019-01-05T01:35:45.776Z,32.63
2019-01-05T01:37:10.475Z,30.50
2019-01-05T01:38:33.842Z,29.00
2019-01-05T01:40:06.835Z,34.90
2019-01-05T01:41:34.423Z,33.20
2019-01-05T01:43:08.133Z,32.98
2019-01-05T01:44:38.877Z,39.73
2019-01-05T01:46:07.030Z,33.80
2019-01-05T01:47:31.662Z,38.73
2019-01-05T01:48:59.332Z,25.88
2019-01-05T01:50:36.693Z,32.75
2019-01-05T01:52:17.738Z,34.58
2019-01-05T01:53:52.473Z,27.90
2019-01-05T01:55:23.050Z,28.80
2019-01-05T01:57:06.249Z,27.52
2019-01-05T01:58:34.966Z,28.62
2019-01-05T02:00:23.433Z,22.93
2019-01-05T02:01:57.642Z,26.93
2019-01-05T02:03:33.938Z,29.20
2019-01-05T02:05:17.095Z,25.85
2019-01-05T02:06:51.033Z,29.27
2019-01-05T02:08:15.863Z,22.37
2019-01-05T02:09:54.607Z,21.25
2019-01-05T02:11:31.374Z,22.00
2019-01-05T02:12:49.081Z,32.50
2019-01-05T02:14:30.601Z,27.25
2019-01-05T02:15:55.921Z,26.10
2019-01-05T02:17:35.515Z,27.87
2019-01-05T02:19:27.125Z,28.07
2019-01-05T02:21:23.739Z,30.52
2019-01-05T02:23:42.488Z,33.40
2019-01-05T02:26:04.031Z,66.90
2019-01-05T02:28:10.702Z,49.33
2019-01-05T02:30:05.420Z,63.08
2019-01-05T02:32:23.076Z,71.60
2019-01-05T02:34:58.590Z,63.98
2019-01-05T02:37:18.386Z,51.33
2019-01-05T02:39:14.124Z,35.88
2019-01-05T02:41:20.318Z,36.65
2019-01-05T02:43:46.846Z,30.45
2019-01-05T02:46:18.479Z,18.98
2019-01-05T02:48:14.889Z,20.90
2019-01-05T02:50:33.941Z,29.27
2019-01-05T02:53:01.071Z,26.55
2019-01-05T02:55:10.062Z,14.18
2019-01-05T02:57:20.326Z,9.90
2019-01-05T02:59:42.094Z,15.05
2019-01-05T03:01:50.062Z,18.52
2019-01-05T03:03:51.063Z,14.58
2019-01-05T03:05:59.787Z,19.85
2019-01-05T03:07:57.137Z,17.50
2019-01-05T03:10:02.949Z,17.42
2019-01-05T03:12:31.144Z,15.88
2019-01-05T03:14:43.861Z,11.57
2019-01-05T03:16:56.109Z,11.38
2019-01-05T03:19:13.554Z,7.33
2019-01-05T03:21:08.902Z,11.95
2019-01-05T03:23:30.284Z,13.80
2019-01-05T03:25:40.330Z,25.77
2019-01-05T03:28:05.813Z,33.45
2019-01-05T03:30:27.574Z,36.68
2019-01-05T03:32:30.959Z,26.23
2019-01-05T03:34:24.106Z,21.50
2019-01-05T03:36:34.354Z,21.87
2019-01-05T03:38:45.090Z,22.60
2019-01-05T03:41:00.551Z,16.42
2019-01-05T03:43:06.210Z,18.02
2019-01-05T03:45:00.142Z,15.85
2019-01-05T03:46:46.833Z,16.75
2019-01-05T03:49:09.833Z,14.83
2019-01-05T03:51:35.623Z,13.78
2019-01-05T03:53:24.071Z,21.12
2019-01-05T03:55:56.757Z,20.92
2019-01-05T03:58:08.587Z,22.07
2019-01-05T04:00:11.559Z,17.12
2019-01-05T04:02:09.710Z,25.17
2019-01-05T04:04:17.842Z,30.43
2019-01-05T04:06:52.299Z,34.27
2019-01-05T04:09:13.066Z,23.27
2019-01-05T04:11:16.574Z,29.50
2019-01-05T04:13:25.011Z,19.98
2019-01-05T04:15:37.834Z,25.88
2019-01-05T04:17:55.469Z,29.35
2019-01-05T04:20:06.572Z,27.07
2019-01-05T04:22:19.047Z,29.15
2019-01-05T04:24:34.362Z,21.50
2019-01-05T04:27:07.095Z,23.10
2019-01-05T04:29:20.505Z,24.25
2019-01-05T04:31:23.414Z,26.37
2019-01-05T04:33:28.213Z,21.62
2019-01-05T04:35:34.251Z,18.35
2019-01-05T04:37:57.062Z,20.62
2019-01-05T04:40:39.565Z,24.35
2019-01-05T04:42:46.879Z,17.23
2019-01-05T04:45:04.747Z,22.25
2019-01-05T04:47:07.938Z,20.10
2019-01-05T04:49:25.915Z,17.30
2019-01-05T04:51:47.304Z,16.80
2019-01-05T04:53:49.139Z,21.33
2019-01-05T04:55:39.464Z,24.80
2019-01-05T04:58:05.610Z,29.48
2019-01-05T05:00:13.082Z,35.43
2019-01-05T05:02:23.406Z,29.85
2019-01-05T05:04:36.177Z,30.45
2019-01-05T05:06:49.554Z,19.12
2019-01-05T05:08:58.520Z,20.05
2019-01-05T05:11:02.501Z,26.07
2019-01-05T05:12:53.355Z,21.10
2019-01-05T05:15:26.939Z,24.95
2019-01-05T05:17:36.345Z,25.05
2019-01-05T05:19:31.407Z,21.50
2019-01-05T05:21:27.958Z,25.50
2019-01-05T05:23:41.900Z,20.88
2019-01-05T05:25:46.549Z,15.85
2019-01-05T05:27:52.705Z,21.37
2019-01-05T05:30:20.430Z,21.45
2019-01-05T05:32:17.041Z,23.87
2019-01-05T05:34:26.753Z,20.55
2019-01-05T05:36:25.229Z,17.00
2019-01-05T05:38:35.535Z,17.92
2019-01-05T05:40:50.708Z,19.37
2019-01-05T05:43:17.191Z,19.52
2019-01-05T05:45:24.813Z,15.30
2019-01-05T05:47:37.832Z,19.30
2019-01-05T05:49:46.921Z,15.08
2019-01-05T05:52:14.279Z,17.10
2019-01-05T05:54:27.671Z,19.10
2019-01-05T05:56:33.158Z,19.98
2019-01-05T05:58:25.241Z,17.70
2019-01-05T06:00:31.853Z,23.32
2019-01-05T06:02:29.462Z,18.75
2019-01-05T06:04:44.057Z,22.82
2019-01-05T06:06:34.710Z,17.37
2019-01-05T06:09:10.305Z,22.55
2019-01-05T06:11:19.172Z,18.87
2019-01-05T06:13:15.817Z,24.00
2019-01-05T06:15:16.310Z,20.27
2019-01-05T06:17:23.354Z,17.95
2019-01-05T06:19:34.379Z,18.35
2019-01-05T06:21:56.521Z,20.77
2019-01-05T06:24:17.929Z,17.30
2019-01-05T06:26:20.931Z,17.70
2019-01-05T06:28:24.705Z,19.52
2019-01-05T06:30:48.453Z,16.67
2019-01-05T06:33:20.673Z,23.80
2019-01-05T06:35:19.932Z,22.87
2019-01-05T06:37:29.134Z,21.00
2019-01-05T06:39:34.037Z,22.60
2019-01-05T06:41:50.907Z,22.93
2019-01-05T06:43:48.063Z,28.42
2019-01-05T06:45:58.113Z,20.02
2019-01-05T06:48:29.806Z,17.07
2019-01-05T06:50:58.273Z,18.17
2019-01-05T06:53:05.098Z,17.82
2019-01-05T06:55:00.369Z,16.23
2019-01-05T06:57:38.363Z,17.00
2019-01-05T06:59:44.195Z,17.45
2019-01-05T07:02:04.790Z,15.98
2019-01-05T07:04:14.864Z,17.17
2019-01-05T07:06:25.602Z,12.58
2019-01-05T07:08:36.981Z,12.00
2019-01-05T07:10:20.578Z,15.70
2019-01-05T07:12:13.073Z,11.53
2019-01-05T07:14:19.178Z,12.15
2019-01-05T07:16:26.527Z,14.73
2019-01-05T07:18:54.395Z,12.55
2019-01-05T07:20:44.209Z,11.00
2019-01-05T07:22:58.419Z,11.30
2019-01-05T07:25:01.979Z,11.53
2019-01-05T07:27:28.465Z,12.30
2019-01-05T07:29:48.770Z,15.75
2019-01-05T07:32:01.085Z,10.90
2019-01-05T07:33:56.468Z,10.32
2019-01-05T07:36:09.240Z,11.68
2019-01-05T07:38:12.847Z,9.50
2019-01-05T07:40:22.373Z,7.17
2019-01-05T07:42:28.030Z,9.60
2019-01-05T07:44:20.251Z,9.80
2019-01-05T07:46:35.050Z,9.35
2019-01-05T07:48:34.486Z,13.95
2019-01-05T07:50:30.126Z,8.20
2019-01-05T07:52:10.462Z,8.50
2019-01-05T07:54:18.422Z,11.28
2019-01-05T07:56:46.054Z,7.15
2019-01-05T07:58:40.448Z,10.63
2019-01-05T08:00:40.618Z,10.00
2019-01-05T08:02:53.911Z,11.30
2019-01-05T08:04:42.438Z,6.75
2019-01-05T08:06:33.147Z,10.95
2019-01-05T08:08:31.065Z,8.78
2019-01-05T08:10:46.912Z,10.70
2019-01-05T08:12:59.503Z,7.50
2019-01-05T08:15:18.318Z,8.03
2019-01-05T08:17:22.946Z,9.88
2019-01-05T08:19:29.065Z,10.68
2019-01-05T08:22:02.118Z,9.15
2019-01-05T08:23:54.145Z,8.25
2019-01-05T08:26:16.882Z,9.33
2019-01-05T08:28:17.620Z,8.88
2019-01-05T08:30:21.586Z,7.87
2019-01-05T08:32:36.482Z,15.40
2019-01-05T08:34:53.557Z,24.25
2019-01-05T08:37:04.689Z,23.45
2019-01-05T08:38:58.205Z,22.70
2019-01-05T08:41:26.725Z,18.90
2019-01-05T08:44:02.786Z,20.68
2019-01-05T08:46:10.792Z,18.37
2019-01-05T08:48:20.328Z,18.12
2019-01-05T08:50:45.605Z,16.23
2019-01-05T08:53:12.181Z,9.65
2019-01-05T08:55:24.035Z,12.00
2019-01-05T08:57:37.438Z,15.00
2019-01-05T09:00:06.796Z,17.57
2019-01-05T09:02:26.457Z,20.32
2019-01-05T09:04:35.910Z,16.65
2019-01-05T09:07:19.044Z,16.07
2019-01-05T09:09:37.326Z,14.03
2019-01-05T09:11:41.285Z,15.78
2019-01-05T09:13:48.066Z,32.67
2019-01-05T09:15:55.618Z,30.95
2019-01-05T09:18:23.121Z,28.90
2019-01-05T09:20:38.218Z,25.68
2019-01-05T09:23:08.037Z,21.70
2019-01-05T09:25:42.135Z,10.95
2019-01-05T09:27:52.760Z,11.68
2019-01-05T09:30:10.673Z,10.55
2019-01-05T09:32:10.262Z,8.85
2019-01-05T09:34:18.140Z,8.45
2019-01-05T09:36:52.669Z,12.37
2019-01-05T09:38:55.869Z,11.57
2019-01-05T09:41:06.829Z,14.68
2019-01-05T09:43:17.122Z,8.73
2019-01-05T09:45:16.218Z,8.38
2019-01-05T09:47:31.310Z,10.55
2019-01-05T09:49:39.764Z,8.80
2019-01-05T09:51:51.153Z,7.53
2019-01-05T09:54:18.518Z,9.13
2019-01-05T09:56:37.491Z,8.68
2019-01-05T09:58:49.413Z,9.85
2019-01-05T10:01:09.795Z,13.20
2019-01-05T10:03:15.193Z,12.55
2019-01-05T10:05:05.186Z,17.80
2019-01-05T10:07:14.855Z,14.18
2019-01-05T10:09:24.209Z,11.80
2019-01-05T10:11:19.669Z,10.80
2019-01-05T10:13:30.642Z,15.40
2019-01-05T10:15:49.590Z,13.00
2019-01-05T10:17:53.311Z,10.10
2019-01-05T10:19:52.791Z,12.82
2019-01-05T10:22:07.370Z,11.20
2019-01-05T10:24:27.250Z,10.10
2019-01-05T10:26:25.270Z,10.25
2019-01-05T10:28:40.325Z,12.88
2019-01-05T10:31:00.159Z,11.40
2019-01-05T10:33:21.159Z,10.60
2019-01-05T10:35:36.209Z,7.75
2019-01-05T10:37:41.634Z,5.67
2019-01-05T10:40:01.363Z,6.67
2019-01-05T10:42:16.077Z,11.43
2019-01-05T10:44:36.173Z,7.22
2019-01-05T10:46:30.306Z,7.58
2019-01-05T10:48:31.162Z,7.35
2019-01-05T10:51:00.841Z,5.72
2019-01-05T10:53:08.981Z,6.90
2019-01-05T10:55:44.261Z,3.42
2019-01-05T10:58:08.472Z,7.50
2019-01-05T11:00:30.073Z,7.45
2019-01-05T11:02:57.364Z,17.67
2019-01-05T11:05:16.325Z,17.48
2019-01-05T11:07:46.538Z,12.37
2019-01-05T11:09:50.662Z,8.55
2019-01-05T11:12:02.271Z,5.70
2019-01-05T11:14:18.113Z,5.25
2019-01-05T11:16:12.037Z,6.90
2019-01-05T11:18:27.289Z,6.12
2019-01-05T11:20:28.482Z,3.52
2019-01-05T11:22:20.634Z,3.65
2019-01-05T11:24:34.079Z,5.00
2019-01-05T11:26:48.101Z,12.03
2019-01-05T11:28:41.503Z,9.38
2019-01-05T11:30:45.507Z,15.88
2019-01-05T11:33:08.195Z,18.52
2019-01-05T11:35:29.361Z,11.00
2019-01-05T11:37:32.897Z,12.05
2019-01-05T11:39:53.544Z,13.88
2019-01-05T11:42:04.106Z,11.20
2019-01-05T11:44:05.710Z,14.78
2019-01-05T11:46:05.258Z,11.63
2019-01-05T11:48:28.414Z,10.63
2019-01-05T11:50:24.409Z,16.55
2019-01-05T11:52:15.633Z,14.73
2019-01-05T11:54:25.651Z,16.97
2019-01-05T11:56:57.754Z,21.42
2019-01-05T11:59:17.050Z,24.90
2019-01-05T12:01:22.934Z,24.92
2019-01-05T12:03:32.129Z,20.30
2019-01-05T12:05:35.113Z,16.10
2019-01-05T12:07:51.727Z,20.60
2019-01-05T12:10:02.102Z,22.87
2019-01-05T12:11:54.529Z,21.15
2019-01-05T12:14:13.549Z,16.30
2019-01-05T12:16:23.978Z,32.58
2019-01-05T12:19:02.657Z,35.78
2019-01-05T12:21:13.869Z,22.30
2019-01-05T12:23:16.650Z,24.43
2019-01-05T12:25:42.305Z,16.30
2019-01-05T12:28:01.230Z,16.85
2019-01-05T12:30:11.274Z,10.50
2019-01-05T12:32:01.558Z,14.73
2019-01-05T12:33:53.548Z,15.43
2019-01-05T12:36:24.102Z,16.25
2019-01-05T12:38:29.292Z,15.48
2019-01-05T12:40:29.419Z,12.20
2019-01-05T12:42:39.723Z,6.15
2019-01-05T12:44:58.313Z,18.65
2019-01-05T12:47:03.064Z,12.85
2019-01-05T12:49:15.591Z,15.68
2019-01-05T12:51:23.003Z,8.78
2019-01-05T12:53:39.213Z,3.15
2019-01-05T12:55:46.610Z,1.77
2019-01-05T12:58:14.794Z,2.45
2019-01-05T13:00:17.511Z,3.47
2019-01-05T13:02:15.531Z,5.58
2019-01-05T13:04:12.602Z,3.15
2019-01-05T13:06:21.980Z,4.30
2019-01-05T13:08:42.750Z,4.45
2019-01-05T13:10:54.766Z,3.58
2019-01-05T13:13:03.985Z,1.80
2019-01-05T13:14:57.569Z,2.08
2019-01-05T13:17:27.217Z,1.00
2019-01-05T13:19:59.109Z,2.75
2019-01-05T13:22:03.323Z,1.40
2019-01-05T13:24:06.214Z,1.07
2019-01-05T13:26:14.281Z,1.40
2019-01-05T13:28:34.475Z,0.80
2019-01-05T13:30:48.749Z,0.60
2019-01-05T13:33:02.926Z,0.60
2019-01-05T13:35:14.955Z,0.70
2019-01-05T13:37:28.518Z,0.60
2019-01-05T13:39:27.880Z,0.60
2019-01-05T13:41:41.022Z,0.90
2019-01-05T13:44:13.464Z,0.70
2019-01-05T13:46:24.673Z,0.70
2019-01-05T13:48:38.299Z,0.62
2019-01-05T13:50:50.958Z,0.90
2019-01-05T13:53:00.588Z,0.75
2019-01-05T13:54:29.294Z,0.70
2019-01-05T13:56:17.804Z,0.80
2019-01-05T13:57:41.012Z,0.60
2019-01-05T13:59:04.185Z,1.35
2019-01-05T14:00:48.294Z,1.00
2019-01-05T14:02:15.930Z,0.70
2019-01-05T14:03:33.788Z,0.82
2019-01-05T14:05:04.753Z,0.60
2019-01-05T14:06:48.734Z,0.60
2019-01-05T14:08:11.898Z,0.82
2019-01-05T14:09:42.106Z,0.60
2019-01-05T14:11:06.550Z,0.90
2019-01-05T14:12:32.975Z,0.70
2019-01-05T14:13:56.326Z,0.60
2019-01-05T14:15:36.054Z,1.22
2019-01-05T14:17:03.411Z,0.85
2019-01-05T14:18:37.719Z,0.60
2019-01-05T14:20:11.828Z,0.78
2019-01-05T14:21:22.717Z,1.80
2019-01-05T14:22:45.934Z,0.90
2019-01-05T14:24:12.789Z,1.37
2019-01-05T14:25:37.241Z,1.40
2019-01-05T14:27:10.254Z,0.60
2019-01-05T14:28:40.626Z,1.12
2019-01-05T14:30:08.877Z,0.98
2019-01-05T14:31:45.774Z,0.93
2019-01-05T14:33:25.155Z,0.82
2019-01-05T14:35:04.656Z,1.07
2019-01-05T14:36:18.269Z,1.20
2019-01-05T14:37:41.182Z,0.82
2019-01-05T14:39:13.565Z,1.22
2019-01-05T14:40:42.917Z,1.00
2019-01-05T14:42:06.057Z,1.17
2019-01-05T14:43:29.233Z,2.33
2019-01-05T14:44:59.850Z,0.80
2019-01-05T14:46:22.813Z,1.07
2019-01-05T14:47:47.353Z,0.88
2019-01-05T14:49:30.022Z,0.90
2019-01-05T14:51:06.234Z,1.27
2019-01-05T14:52:30.025Z,0.60
2019-01-05T14:53:57.414Z,1.20
2019-01-05T14:55:21.888Z,1.52
2019-01-05T14:56:45.109Z,1.20
2019-01-05T14:58:08.533Z,1.72
2019-01-05T14:59:42.085Z,1.62
2019-01-05T15:01:05.894Z,2.02
2019-01-05T15:02:33.342Z,2.77
2019-01-05T15:03:58.496Z,3.90
2019-01-05T15:05:22.099Z,3.55
2019-01-05T15:07:05.251Z,3.58
2019-01-05T15:08:32.877Z,1.42
2019-01-05T15:10:13.093Z,0.80
2019-01-05T15:11:36.074Z,0.70
2019-01-05T15:12:55.669Z,0.80
2019-01-05T15:14:18.978Z,2.05
2019-01-05T15:15:49.713Z,0.70
2019-01-05T15:17:12.679Z,0.60
2019-01-05T15:18:43.062Z,1.00
2019-01-05T15:20:07.590Z,0.72
2019-01-05T15:21:28.031Z,0.90
2019-01-05T15:22:51.386Z,0.80
2019-01-05T15:24:21.990Z,0.82
2019-01-05T15:25:53.446Z,1.42
2019-01-05T15:27:16.569Z,0.90
2019-01-05T15:28:43.722Z,1.25
2019-01-05T15:30:08.359Z,0.85
2019-01-05T15:31:47.802Z,1.12
2019-01-05T15:33:28.373Z,1.10
2019-01-05T15:34:53.461Z,2.50
2019-01-05T15:36:30.668Z,1.70
2019-01-05T15:38:13.202Z,0.70
2019-01-05T15:39:52.553Z,1.72
2019-01-05T15:41:15.867Z,1.10
2019-01-05T15:42:40.377Z,0.70
2019-01-05T15:44:19.827Z,1.12
2019-01-05T15:45:59.286Z,1.10
2019-01-05T15:47:18.391Z,0.82
2019-01-05T15:48:48.520Z,1.40
2019-01-05T15:50:16.456Z,1.77
2019-01-05T15:51:47.943Z,0.90
2019-01-05T15:53:15.173Z,0.90
2019-01-05T15:54:38.273Z,2.85
2019-01-05T15:56:08.555Z,1.10
2019-01-05T15:57:48.231Z,0.80
2019-01-05T15:59:12.038Z,1.70
2019-01-05T16:00:39.270Z,1.75
2019-01-05T16:01:57.554Z,1.75
2019-01-05T16:03:21.976Z,1.50
2019-01-05T16:04:46.342Z,0.90
2019-01-05T16:06:10.682Z,2.58
2019-01-05T16:07:33.885Z,1.45
2019-01-05T16:09:13.754Z,1.05
2019-01-05T16:10:37.171Z,2.40
2019-01-05T16:12:16.074Z,2.55
2019-01-05T16:13:37.267Z,3.45
2019-01-05T16:15:11.902Z,5.15
2019-01-05T16:16:36.297Z,7.00
2019-01-05T16:18:00.650Z,5.35
2019-01-05T16:19:29.936Z,1.85
2019-01-05T16:20:53.369Z,7.67
2019-01-05T16:22:18.169Z,8.55
2019-01-05T16:23:51.737Z,4.67
2019-01-05T16:25:14.663Z,4.80
2019-01-05T16:26:59.008Z,4.70
2019-01-05T16:28:20.436Z,3.15
2019-01-05T16:30:03.384Z,4.47
2019-01-05T16:31:39.992Z,4.80
2019-01-05T16:33:07.434Z,2.05
2019-01-05T16:34:30.492Z,3.83
2019-01-05T16:36:00.749Z,1.62
2019-01-05T16:37:23.966Z,2.02
2019-01-05T16:38:47.289Z,2.52
2019-01-05T16:40:17.849Z,2.95
2019-01-05T16:41:40.743Z,3.42
2019-01-05T16:43:11.335Z,5.55
2019-01-05T16:44:34.890Z,3.42
2019-01-05T16:45:59.314Z,4.12
2019-01-05T16:47:28.352Z,7.50
2019-01-05T16:49:07.318Z,4.03
2019-01-05T16:50:30.636Z,8.08
2019-01-05T16:52:08.524Z,7.25
2019-01-05T16:53:49.705Z,7.35
2019-01-05T16:55:12.666Z,6.80
2019-01-05T16:56:33.048Z,6.83
2019-01-05T16:57:53.904Z,8.15
2019-01-05T16:59:31.397Z,8.50
2019-01-05T17:01:14.177Z,6.40
2019-01-05T17:02:37.240Z,7.62
2019-01-05T17:04:13.609Z,8.68
2019-01-05T17:05:55.973Z,8.83
2019-01-05T17:07:18.885Z,7.47
2019-01-05T17:08:45.782Z,6.90
2019-01-05T17:10:12.913Z,6.87
2019-01-05T17:11:36.428Z,6.33
2019-01-05T17:12:59.238Z,8.03
2019-01-05T17:14:35.731Z,6.33
2019-01-05T17:15:58.637Z,9.53
2019-01-05T17:17:23.154Z,9.63
2019-01-05T17:18:49.247Z,8.93
2019-01-05T17:20:15.590Z,12.18
2019-01-05T17:21:38.962Z,14.03
2019-01-05T17:23:02.083Z,13.35
2019-01-05T17:24:29.498Z,11.57
2019-01-05T17:25:54.386Z,11.38
2019-01-05T17:27:23.322Z,9.13
2019-01-05T17:28:53.675Z,12.40
2019-01-05T17:30:30.250Z,10.88
2019-01-05T17:31:57.830Z,8.25
2019-01-05T17:33:21.016Z,9.98
2019-01-05T17:34:48.847Z,4.80
2019-01-05T17:36:12.145Z,6.03
2019-01-05T17:37:47.927Z,7.37
2019-01-05T17:39:12.706Z,4.78
2019-01-05T17:40:39.794Z,7.10
2019-01-05T17:42:17.721Z,5.10
2019-01-05T17:43:48.288Z,7.22
2019-01-05T17:45:28.767Z,6.70
2019-01-05T17:46:58.874Z,5.53
2019-01-05T17:48:23.272Z,4.35
2019-01-05T17:49:48.204Z,5.92
2019-01-05T17:51:12.513Z,4.45
2019-01-05T17:52:37.169Z,3.65
2019-01-05T17:54:00.811Z,4.37
2019-01-05T17:55:37.453Z,3.87
2019-01-05T17:57:16.948Z,4.08
2019-01-05T17:58:37.324Z,1.82
2019-01-05T18:00:13.870Z,2.67
2019-01-05T18:01:41.076Z,4.50
2019-01-05T18:03:04.087Z,2.40
2019-01-05T18:04:27.397Z,2.77
2019-01-05T18:05:50.568Z,3.05
2019-01-05T18:07:23.853Z,4.87
2019-01-05T18:08:57.270Z,4.28
2019-01-05T18:10:25.280Z,4.50
2019-01-05T18:11:52.721Z,3.65
2019-01-05T18:13:15.788Z,3.80
2019-01-05T18:14:39.002Z,2.52
2019-01-05T18:16:02.622Z,2.90
2019-01-05T18:17:29.728Z,3.70
2019-01-05T18:18:54.722Z,5.75
2019-01-05T18:20:33.968Z,4.08
2019-01-05T18:22:10.925Z,6.17
2019-01-05T18:23:43.993Z,4.83
2019-01-05T18:25:23.925Z,7.60
2019-01-05T18:26:46.735Z,5.47
2019-01-05T18:28:09.734Z,4.92
2019-01-05T18:29:34.897Z,7.95
2019-01-05T18:31:02.106Z,6.72
2019-01-05T18:32:26.610Z,7.10
2019-01-05T18:33:49.866Z,10.38
2019-01-05T18:35:12.990Z,7.12
2019-01-05T18:36:46.621Z,5.78
2019-01-05T18:38:11.229Z,7.22
2019-01-05T18:39:47.942Z,5.42
2019-01-05T18:41:32.412Z,8.58
2019-01-05T18:43:02.876Z,8.95
2019-01-05T18:44:36.461Z,11.60
2019-01-05T18:46:00.126Z,7.28
2019-01-05T18:47:30.623Z,8.93
2019-01-05T18:50:19.812Z,9.63
2019-01-05T18:51:43.893Z,8.70
2019-01-05T18:53:07.061Z,8.43
2019-01-05T18:54:30.118Z,20.17
2019-01-05T18:55:57.622Z,14.05
2019-01-05T18:57:23.826Z,9.85
2019-01-05T18:58:47.291Z,11.95
2019-01-05T19:00:30.038Z,9.80
2019-01-05T19:02:03.267Z,12.23
2019-01-05T19:03:27.013Z,8.73
2019-01-05T19:04:51.466Z,7.80
2019-01-05T19:06:31.413Z,9.05
2019-01-05T19:07:54.653Z,9.45
2019-01-05T19:09:17.361Z,5.78
2019-01-05T19:10:56.956Z,5.10
2019-01-05T19:12:33.800Z,7.28
2019-01-05T19:14:07.885Z,6.20
2019-01-05T19:15:31.004Z,5.08
2019-01-05T19:16:54.423Z,6.25
2019-01-05T19:18:37.135Z,6.45
2019-01-05T19:20:00.765Z,5.92
2019-01-05T19:21:30.997Z,4.42
2019-01-05T19:23:12.963Z,4.55
2019-01-05T19:24:42.291Z,7.17
2019-01-05T19:26:05.595Z,5.75
2019-01-05T19:27:33.114Z,6.42
2019-01-05T19:28:56.106Z,4.92
2019-01-05T19:30:15.685Z,3.98
2019-01-05T19:31:52.421Z,4.58
2019-01-05T19:33:23.975Z,4.95
2019-01-05T19:35:06.403Z,4.47
2019-01-05T19:36:49.035Z,6.45
2019-01-05T19:38:28.405Z,4.30
2019-01-05T19:40:04.254Z,3.80
2019-01-05T19:41:34.219Z,3.15
2019-01-05T19:43:02.456Z,4.03
2019-01-05T19:44:39.022Z,3.22
2019-01-05T19:46:08.800Z,3.33
2019-01-05T19:47:31.988Z,3.60
2019-01-05T19:48:54.912Z,5.55
2019-01-05T19:50:18.538Z,4.15
2019-01-05T19:51:45.637Z,2.10
2019-01-05T19:53:13.286Z,2.10
2019-01-05T19:54:37.712Z,2.27
2019-01-05T19:56:00.720Z,3.83
2019-01-05T19:57:30.971Z,2.22
2019-01-05T19:58:58.509Z,1.82
2019-01-05T20:00:25.505Z,1.30
2019-01-05T20:01:53.277Z,2.95
2019-01-05T20:03:15.494Z,2.60
2019-01-05T20:04:38.714Z,2.20
2019-01-05T20:06:14.508Z,1.27
2019-01-05T20:07:37.803Z,1.95
2019-01-05T20:09:20.637Z,2.45
2019-01-05T20:10:44.016Z,2.27
2019-01-05T20:12:12.452Z,2.67
2019-01-05T20:13:55.145Z,1.60
2019-01-05T20:15:26.043Z,1.40
2019-01-05T20:16:53.617Z,2.00
2019-01-05T20:18:33.223Z,1.95
2019-01-05T20:20:07.307Z,1.85
2019-01-05T20:21:40.966Z,1.77
2019-01-05T20:23:11.726Z,2.75
2019-01-05T20:24:35.317Z,1.52
2019-01-05T20:26:00.024Z,3.62
2019-01-05T20:27:24.653Z,2.08
2019-01-05T20:30:50.633Z,2.80
2019-01-05T20:32:16.079Z,2.33
2019-01-05T20:33:59.038Z,2.47
2019-01-05T20:35:35.863Z,2.80
2019-01-05T20:37:01.966Z,3.30
2019-01-05T20:38:26.872Z,3.20
2019-01-05T20:39:56.204Z,4.90
2019-01-05T20:41:24.161Z,2.67
2019-01-05T20:42:49.515Z,3.72
2019-01-05T20:44:23.968Z,3.90
2019-01-05T20:45:47.350Z,4.70
2019-01-05T20:47:17.976Z,6.72
2019-01-05T20:48:36.941Z,3.90
2019-01-05T20:50:04.492Z,6.00
2019-01-05T20:51:44.389Z,7.72
2019-01-05T20:53:07.877Z,7.92
2019-01-05T20:54:31.390Z,6.05
2019-01-05T20:55:55.875Z,6.12
2019-01-05T20:57:26.884Z,4.83
2019-01-05T20:58:51.527Z,3.47
2019-01-05T21:00:15.043Z,5.15
2019-01-05T21:01:38.262Z,6.55
2019-01-05T21:03:01.248Z,5.55
2019-01-05T21:04:24.872Z,7.25
2019-01-05T21:05:49.152Z,5.85
2019-01-05T21:07:13.981Z,6.65
2019-01-05T21:08:44.982Z,10.10
2019-01-05T21:10:28.449Z,10.53
2019-01-05T21:11:55.904Z,4.05
2019-01-05T21:13:20.364Z,5.42
2019-01-05T21:14:53.166Z,4.80
2019-01-05T21:16:16.650Z,3.10
2019-01-05T21:17:55.227Z,2.27
2019-01-05T21:19:26.500Z,3.75
2019-01-05T21:20:49.248Z,4.33
2019-01-05T21:22:13.833Z,5.20
2019-01-05T21:23:38.032Z,6.70
2019-01-05T21:25:04.441Z,2.45
2019-01-05T21:26:52.742Z,3.83
2019-01-05T21:28:35.067Z,1.55
2019-01-05T21:30:02.482Z,3.45
2019-01-05T21:31:45.034Z,7.95
2019-01-05T21:33:36.799Z,9.85
2019-01-05T21:35:26.271Z,13.13
2019-01-05T21:37:08.941Z,11.97
2019-01-05T21:38:43.794Z,9.30
2019-01-05T21:40:20.484Z,4.80
2019-01-05T21:41:59.971Z,4.60
2019-01-05T21:43:30.129Z,3.33
2019-01-05T21:44:54.986Z,2.40
2019-01-05T21:46:33.771Z,3.37
2019-01-05T21:47:58.182Z,2.42
2019-01-05T21:49:23.641Z,5.72
2019-01-05T21:51:05.999Z,3.15
2019-01-05T21:52:29.959Z,3.25
2019-01-05T21:53:54.579Z,3.62
2019-01-05T21:55:27.054Z,3.00
2019-01-05T21:56:53.183Z,3.50
2019-01-05T21:58:18.260Z,3.17
2019-01-05T21:59:38.610Z,3.22
2019-01-05T22:01:13.276Z,3.25
2019-01-05T22:02:41.117Z,5.42
2019-01-05T22:04:10.741Z,5.08
2019-01-05T22:05:41.037Z,5.30
2019-01-05T22:07:07.057Z,5.05
2019-01-05T22:08:49.193Z,4.33
2019-01-05T22:10:09.071Z,5.28
2019-01-05T22:11:46.464Z,4.62
2019-01-05T22:13:20.638Z,4.80
2019-01-05T22:14:55.494Z,2.90
2019-01-05T22:16:36.198Z,3.50
2019-01-05T22:18:06.024Z,2.70
2019-01-05T22:19:33.962Z,5.45
2019-01-05T22:21:07.758Z,3.40
2019-01-05T22:22:32.858Z,4.03
2019-01-05T22:24:04.081Z,17.30
2019-01-05T22:25:27.269Z,26.17
2019-01-05T22:26:57.922Z,15.68
2019-01-05T22:28:31.444Z,14.10
2019-01-05T22:29:54.842Z,15.28
2019-01-05T22:31:19.697Z,13.95
2019-01-05T22:32:43.522Z,9.15
2019-01-05T22:34:25.910Z,13.08
2019-01-05T22:35:50.506Z,15.72
2019-01-05T22:37:15.564Z,20.97
2019-01-05T22:38:42.878Z,14.83
2019-01-05T22:40:10.311Z,15.00
2019-01-05T22:41:44.374Z,16.05
2019-01-05T22:43:07.751Z,8.10
2019-01-05T22:44:30.986Z,10.95
2019-01-05T22:45:54.545Z,14.83
2019-01-05T22:47:17.585Z,13.32
2019-01-05T22:48:44.838Z,20.05
2019-01-05T22:50:09.355Z,12.00
2019-01-05T22:51:32.594Z,18.15
2019-01-05T22:52:56.033Z,13.32
2019-01-05T22:54:13.154Z,12.28
2019-01-05T22:55:49.782Z,14.55
2019-01-05T22:57:12.450Z,13.78
2019-01-05T22:58:41.997Z,14.93
2019-01-05T23:00:26.671Z,12.43
2019-01-05T23:02:10.010Z,18.60
2019-01-05T23:03:46.353Z,10.45
2019-01-05T23:05:19.533Z,14.98
2019-01-05T23:06:49.710Z,19.42
2019-01-05T23:08:12.701Z,18.57
2019-01-05T23:09:37.921Z,9.43
2019-01-05T23:11:01.314Z,12.40
2019-01-05T23:12:24.526Z,16.73
2019-01-05T23:14:07.047Z,17.27
2019-01-05T23:26:28.880Z,21.02